Time;durP1;ratioP1;P1;durP2;ratioP2;P2;SDS_P1;SDS_P2;PMS_P1;PMS_P2;Temp;Humidity;BMP_temperature;BMP_pressure;BME280_temperature;BME280_humidity;BME280_pressure;Samples;Min_cycle;Max_cycle;Signal;HPM_P1;HPM_P2
2022/05/16 00:01:35;;;;;;;3.33;2.70;;;23.80;59.80;;;;;;7367149;19;20018;-84
2022/05/16 00:04:04;;;;;;;6.22;2.63;;;23.80;60.20;;;;;;7388939;19;20387;-83
2022/05/16 00:06:39;;;;;;;7.57;3.42;;;23.80;60.10;;;;;;7367225;19;20259;-83
2022/05/16 00:09:08;;;;;;;8.93;3.53;;;23.70;61.30;;;;;;7366676;19;20002;-83
2022/05/16 00:11:37;;;;;;;5.18;3.20;;;23.70;62.10;;;;;;7367204;19;20082;-83
2022/05/16 00:14:07;;;;;;;4.57;2.83;;;23.70;63.00;;;;;;7367307;19;20029;-84
2022/05/16 00:16:36;;;;;;;4.70;2.92;;;23.70;62.40;;;;;;7366797;19;20034;-84
2022/05/16 00:19:05;;;;;;;6.93;3.42;;;23.70;62.40;;;;;;7389866;19;20015;-83
2022/05/16 00:21:37;;;;;;;5.75;3.33;;;23.50;62.50;;;;;;7366437;19;20006;-84
2022/05/16 00:24:06;;;;;;;5.60;3.30;;;23.40;63.00;;;;;;7367089;19;20022;-84
2022/05/16 00:26:35;;;;;;;10.20;3.30;;;23.50;63.20;;;;;;7365565;19;20048;-84
2022/05/16 00:29:04;;;;;;;5.00;3.20;;;23.40;61.80;;;;;;7366580;19;20082;-84
2022/05/16 00:31:33;;;;;;;4.90;3.25;;;23.40;62.50;;;;;;7366007;19;20395;-83
2022/05/16 00:34:01;;;;;;;7.82;3.10;;;23.40;63.00;;;;;;7389021;19;20082;-84
2022/05/16 00:36:30;;;;;;;5.63;2.92;;;23.40;63.20;;;;;;7366975;19;20334;-84
2022/05/16 00:39:01;;;;;;;6.88;2.88;;;23.40;63.30;;;;;;7367446;19;20082;-84
2022/05/16 00:41:30;;;;;;;;;;;23.40;63.50;;;;;;7366958;19;20014;-84
2022/05/16 00:44:01;;;;;;;6.18;2.70;;;23.50;63.70;;;;;;7366457;19;19915;-84
2022/05/16 00:46:33;;;;;;;8.57;3.08;;;23.50;63.40;;;;;;7368999;19;20040;-84
2022/05/16 00:49:04;;;;;;;5.30;3.22;;;23.50;62.90;;;;;;7390117;19;20037;-84
2022/05/16 00:51:35;;;;;;;5.63;2.65;;;23.50;62.80;;;;;;7369902;19;20022;-84
2022/05/16 00:54:11;;;;;;;5.90;3.70;;;23.50;62.30;;;;;;7369371;19;20018;-84
2022/05/16 00:56:40;;;;;;;5.38;3.10;;;23.40;62.80;;;;;;7369405;19;20081;-84
2022/05/16 00:59:10;;;;;;;8.18;3.42;;;23.50;62.90;;;;;;7368082;19;20022;-84
2022/05/16 01:07:05;;;;;;;7.32;3.00;;;23.50;63.80;;;;;;7390888;19;20018;-84
2022/05/16 01:09:36;;;;;;;3.97;2.90;;;23.40;61.80;;;;;;7373716;19;20024;-84
2022/05/16 01:12:05;;;;;;;;;;;23.40;62.20;;;;;;7377993;19;20054;-84
2022/05/16 01:14:46;;;;;;;6.28;2.75;;;23.40;62.90;;;;;;7378248;19;19927;-84
2022/05/16 01:17:16;;;;;;;4.63;2.40;;;23.40;62.70;;;;;;7382390;19;20031;-85
2022/05/16 01:19:44;;;;;;;9.00;3.00;;;23.40;62.70;;;;;;7381509;19;20015;-85
2022/05/16 01:22:32;;;;;;;4.18;2.80;;;23.40;62.70;;;;;;7380407;19;20011;-84
2022/05/16 01:25:07;;;;;;;6.50;2.80;;;23.40;62.60;;;;;;7404482;19;20022;-85
2022/05/16 01:27:48;;;;;;;6.22;2.97;;;23.40;62.00;;;;;;7382498;19;20014;-85
2022/05/16 01:30:18;;;;;;;4.78;2.42;;;23.40;61.90;;;;;;7381114;19;20062;-85
2022/05/16 01:32:47;;;;;;;7.17;2.67;;;23.40;61.70;;;;;;7381770;19;20077;-84
2022/05/16 01:35:21;;;;;;;7.85;3.28;;;23.30;61.90;;;;;;7377908;19;20023;-85
2022/05/16 01:40:34;;;;;;;8.43;3.20;;;23.30;62.70;;;;;;7372697;19;20015;-84
2022/05/16 01:43:03;;;;;;;7.90;2.72;;;23.30;62.90;;;;;;7394853;19;20371;-84
2022/05/16 01:45:32;;;;;;;6.53;2.88;;;23.40;63.00;;;;;;7373684;19;20082;-84
2022/05/16 01:48:00;;;;;;;7.80;2.90;;;23.40;62.70;;;;;;7370906;19;20090;-85
2022/05/16 01:50:29;;;;;;;5.90;3.10;;;23.40;62.60;;;;;;7373852;19;20031;-84
2022/05/16 01:53:01;;;;;;;4.28;2.95;;;23.40;62.70;;;;;;7374131;19;20380;-85
2022/05/16 01:55:29;;;;;;;;;;;23.50;62.70;;;;;;7376138;19;20027;-84
2022/05/16 01:57:58;;;;;;;6.53;3.25;;;23.60;62.40;;;;;;7392505;19;19922;-85
2022/05/16 02:00:27;;;;;;;8.85;3.28;;;23.50;62.00;;;;;;7373289;19;20094;-85
2022/05/16 02:02:56;;;;;;;6.93;3.17;;;23.50;62.20;;;;;;7372374;19;20010;-85
2022/05/16 02:05:26;;;;;;;4.55;3.00;;;23.50;62.10;;;;;;7371461;19;20015;-85
2022/05/16 02:07:55;;;;;;;7.32;2.97;;;23.50;61.70;;;;;;7372784;19;20015;-85
2022/05/16 02:10:28;;;;;;;8.88;3.67;;;23.50;62.10;;;;;;7370645;19;20077;-84
2022/05/16 02:12:59;;;;;;;7.45;3.90;;;23.50;62.00;;;;;;7394599;19;20011;-84
2022/05/16 02:15:30;;;;;;;14.15;4.00;;;23.40;62.20;;;;;;7372374;19;20015;-84
2022/05/16 02:18:00;;;;;;;5.97;3.35;;;23.40;62.00;;;;;;7370669;19;20023;-85
2022/05/16 02:20:29;;;;;;;6.18;3.60;;;23.40;62.30;;;;;;7370135;19;20097;-84
2022/05/16 02:25:49;;;;;;;9.43;4.13;;;23.40;62.20;;;;;;7375138;19;20014;-84
2022/05/16 02:28:20;;;;;;;13.70;8.02;;;23.40;62.10;;;;;;7372163;19;20078;-83
2022/05/16 02:30:49;;;;;;;10.02;4.13;;;23.40;62.00;;;;;;7373062;19;20014;-84
2022/05/16 02:33:19;;;;;;;10.30;4.20;;;23.40;61.50;;;;;;7361978;19;20018;-84
2022/05/16 02:35:53;;;;;;;6.53;4.28;;;23.40;62.20;;;;;;7367356;19;20019;-84
2022/05/16 02:38:22;;;;;;;11.57;4.57;;;23.30;61.90;;;;;;7368725;19;20118;-84
2022/05/16 02:40:53;;;;;;;8.13;4.60;;;23.20;61.10;;;;;;7369401;19;20078;-84
2022/05/16 02:43:21;;;;;;;;;;;23.20;61.60;;;;;;7371656;19;20081;-83
2022/05/16 02:45:50;;;;;;;11.75;5.80;;;23.30;61.70;;;;;;7392530;19;20281;-83
2022/05/16 02:48:19;;;;;;;12.43;5.20;;;23.20;61.20;;;;;;7368603;19;20014;-83
2022/05/16 03:55:43;;;;;;;18.88;8.00;;;23.10;62.60;;;;;;7354551;19;20033;-84
2022/05/16 03:58:12;;;;;;;16.73;7.90;;;23.00;62.60;;;;;;7356717;19;20547;-84
2022/05/16 04:21:30;;;;;;;17.13;8.82;;;22.90;63.20;;;;;;7377903;19;20023;-84
2022/05/16 04:24:01;;;;;;;17.83;9.30;;;22.90;63.50;;;;;;7367899;19;20118;-85
2022/05/16 04:26:30;;;;;;;18.45;9.05;;;22.80;63.00;;;;;;7372039;19;20011;-85
2022/05/16 04:28:58;;;;;;;15.25;9.23;;;22.90;63.20;;;;;;7375039;19;20007;-85
2022/05/16 04:31:27;;;;;;;18.40;8.88;;;22.90;63.50;;;;;;7375749;19;20007;-85
2022/05/16 04:33:56;;;;;;;17.85;9.18;;;22.90;63.50;;;;;;7396760;19;20017;-85
2022/05/16 04:36:27;;;;;;;17.13;8.52;;;22.90;63.80;;;;;;7373689;19;20359;-85
2022/05/16 04:38:56;;;;;;;;;;;23.00;63.90;;;;;;7374396;19;20370;-85
2022/05/16 04:44:10;;;;;;;17.88;8.43;;;23.00;63.10;;;;;;7379105;19;20027;-85
2022/05/16 04:46:42;;;;;;;15.70;8.85;;;23.00;63.50;;;;;;7381276;19;20007;-84
2022/05/16 04:49:11;;;;;;;15.02;8.77;;;23.00;62.90;;;;;;7377632;19;20022;-84
2022/05/16 04:51:49;;;;;;;18.05;9.13;;;23.00;63.40;;;;;;7398574;19;20086;-84
2022/05/16 04:54:18;;;;;;;18.45;9.35;;;22.90;63.10;;;;;;7380362;19;20032;-84
2022/05/16 04:56:49;;;;;;;20.27;9.57;;;22.90;63.20;;;;;;7380809;19;20011;-85
2022/05/16 04:59:31;;;;;;;15.57;9.55;;;22.80;63.30;;;;;;7381184;19;20003;-85
2022/05/16 05:01:59;;;;;;;17.58;9.50;;;22.80;63.40;;;;;;7377708;19;20013;-85
2022/05/16 05:04:31;;;;;;;20.65;10.60;;;22.80;63.50;;;;;;7377231;19;20006;-84
2022/05/16 05:07:04;;;;;;;;;;;22.80;63.80;;;;;;7400473;19;20014;-85
2022/05/16 05:14:31;;;;;;;22.08;11.10;;;22.80;63.20;;;;;;7381213;19;20294;-85
2022/05/16 05:15:06;;;;;;;26.45;11.48;;;22.50;63.40;;;;;;7380843;19;20022;-84
2022/05/16 05:17:43;;;;;;;22.08;11.80;;;22.50;63.70;;;;;;7380773;19;20010;-84
2022/05/16 05:20:20;;;;;;;23.60;12.20;;;22.50;64.00;;;;;;7381130;19;20493;-85
2022/05/16 05:22:52;;;;;;;28.33;12.40;;;22.40;64.00;;;;;;7382477;19;20010;-84
2022/05/16 05:25:22;;;;;;;;;;;22.50;63.80;;;;;;7379115;19;20018;-84
2022/05/16 05:27:51;;;;;;;19.98;12.07;;;22.50;64.00;;;;;;7401223;19;19918;-84
2022/05/16 05:30:25;;;;;;;23.55;10.93;;;22.50;63.80;;;;;;7379436;19;20086;-84
2022/05/16 05:33:05;;;;;;;19.08;11.15;;;22.50;64.10;;;;;;7379141;19;20014;-84
2022/05/16 05:35:36;;;;;;;18.65;11.52;;;22.60;64.10;;;;;;7379126;19;20117;-84
2022/05/16 05:38:09;;;;;;;23.65;11.50;;;22.70;63.60;;;;;;7378208;19;20442;-84
2022/05/16 05:40:38;;;;;;;23.63;11.60;;;22.70;63.60;;;;;;7380318;19;20641;-84
2022/05/16 05:43:07;;;;;;;23.23;11.30;;;22.80;63.20;;;;;;7378924;19;20030;-84
2022/05/16 05:45:37;;;;;;;22.55;12.38;;;22.80;63.00;;;;;;7400029;19;20015;-84
2022/05/16 05:48:07;;;;;;;19.67;12.15;;;22.80;63.30;;;;;;7375053;19;20045;-84
2022/05/16 05:50:36;;;;;;;20.50;12.73;;;22.80;63.00;;;;;;7379015;19;20097;-83
2022/05/16 05:53:07;;;;;;;20.30;12.75;;;22.80;62.60;;;;;;7376862;19;20010;-83
2022/05/16 05:55:40;;;;;;;15.55;11.98;;;22.80;62.60;;;;;;7378499;19;20445;-83
2022/05/16 05:58:18;;;;;;;25.63;12.75;;;22.80;62.40;;;;;;7378757;19;20016;-82
2022/05/16 06:00:48;;;;;;;21.48;12.77;;;22.70;62.20;;;;;;7399471;19;20018;-83
2022/05/16 06:03:30;;;;;;;25.92;12.45;;;22.60;62.30;;;;;;7376835;19;20466;-83
2022/05/16 06:06:00;;;;;;;23.73;11.43;;;22.60;62.70;;;;;;7377747;19;20002;-84
2022/05/16 06:08:31;;;;;;;17.25;10.80;;;22.60;62.50;;;;;;7375862;19;20013;-83
2022/05/16 06:11:02;;;;;;;19.83;12.00;;;22.60;62.50;;;;;;7376623;19;20451;-83
2022/05/16 06:13:31;;;;;;;;;;;22.70;62.60;;;;;;7377656;19;20011;-83
2022/05/16 06:16:11;;;;;;;20.30;12.07;;;22.70;62.70;;;;;;7396458;19;19934;-84
2022/05/16 06:18:51;;;;;;;23.90;11.20;;;22.60;62.50;;;;;;7377592;19;20081;-83
2022/05/16 06:21:21;;;;;;;18.40;11.20;;;22.60;62.80;;;;;;7377463;19;20038;-84
2022/05/16 06:23:55;;;;;;;22.80;11.68;;;22.50;62.80;;;;;;7375193;19;20006;-85
2022/05/16 06:26:36;;;;;;;20.90;11.35;;;22.50;62.90;;;;;;7376939;19;20010;-84
2022/05/16 06:29:05;;;;;;;16.90;11.23;;;22.50;62.40;;;;;;7353473;19;20375;-84
2022/05/16 06:31:34;;;;;;;15.38;10.70;;;22.50;62.60;;;;;;7399310;19;20037;-84
2022/05/16 06:34:17;;;;;;;15.90;10.70;;;22.60;62.70;;;;;;7398315;19;20019;-84
2022/05/16 06:36:54;;;;;;;21.55;10.20;;;22.70;62.70;;;;;;7376472;19;20007;-84
2022/05/16 06:39:26;;;;;;;16.65;10.02;;;22.70;62.10;;;;;;7376721;19;20015;-84
2022/05/16 06:41:56;;;;;;;17.13;9.70;;;22.80;62.00;;;;;;7375281;19;20074;-84
2022/05/16 06:44:28;;;;;;;19.42;9.80;;;22.90;60.90;;;;;;7375846;19;20007;-83
2022/05/16 06:46:58;;;;;;;15.48;9.82;;;22.90;61.10;;;;;;7376760;19;20011;-83
2022/05/16 06:49:29;;;;;;;15.52;9.77;;;22.90;61.20;;;;;;7374485;19;20015;-82
2022/05/16 06:51:58;;;;;;;15.13;9.40;;;22.80;60.70;;;;;;7395188;19;20010;-83
2022/05/16 06:54:35;;;;;;;19.00;9.38;;;22.90;60.50;;;;;;7374901;19;20010;-84
2022/05/16 06:57:04;;;;;;;17.67;8.88;;;22.80;60.40;;;;;;7373159;19;20070;-81
2022/05/16 06:59:33;;;;;;;14.45;8.68;;;22.80;60.40;;;;;;7375689;19;20074;-83
2022/05/16 07:02:02;;;;;;;16.10;8.90;;;22.70;60.40;;;;;;7375834;19;20022;-83
2022/05/16 07:04:30;;;;;;;18.00;8.75;;;22.80;60.50;;;;;;7374502;19;20018;-82
2022/05/16 07:06:59;;;;;;;14.30;8.60;;;22.90;60.70;;;;;;7396200;19;20078;-83
2022/05/16 07:09:31;;;;;;;17.48;8.50;;;22.90;60.20;;;;;;7372058;19;20007;-83
2022/05/16 07:11:59;;;;;;;;;;;23.00;59.90;;;;;;7372463;19;20077;-84
2022/05/16 07:14:28;;;;;;;13.68;8.23;;;23.20;59.90;;;;;;7375122;19;19918;-82
2022/05/16 07:16:56;;;;;;;17.77;8.23;;;23.20;60.00;;;;;;7380888;19;20445;-85
2022/05/16 07:19:28;;;;;;;17.10;8.63;;;23.20;59.10;;;;;;7374451;19;20137;-81
2022/05/16 07:21:58;;;;;;;17.70;8.63;;;23.10;58.50;;;;;;7395162;19;20021;-83
2022/05/16 07:24:26;;;;;;;14.82;8.10;;;23.10;58.90;;;;;;7386905;19;20015;-84
2022/05/16 07:29:39;;;;;;;16.17;7.38;;;23.10;58.60;;;;;;7388686;19;20014;-83
2022/05/16 07:32:11;;;;;;;14.52;7.10;;;23.00;57.90;;;;;;7374175;19;20027;-82
2022/05/16 07:34:40;;;;;;;11.32;6.97;;;23.00;58.70;;;;;;7373421;19;20066;-82
2022/05/16 07:37:10;;;;;;;16.60;7.82;;;23.10;59.00;;;;;;7374905;19;20021;-82
2022/05/16 07:39:39;;;;;;;19.23;7.57;;;23.10;58.70;;;;;;7399011;19;20019;-85
2022/05/16 07:42:12;;;;;;;16.63;7.88;;;23.10;58.70;;;;;;7373845;19;20039;-85
2022/05/16 07:44:43;;;;;;;11.32;6.55;;;23.10;58.50;;;;;;7374087;19;20678;-82
2022/05/16 07:47:11;;;;;;;14.18;7.50;;;23.20;58.60;;;;;;7373163;19;20101;-82
2022/05/16 07:49:40;;;;;;;15.75;7.50;;;23.20;58.10;;;;;;7374284;19;20413;-86
2022/05/16 07:52:10;;;;;;;17.60;7.30;;;23.10;58.20;;;;;;7372838;19;20398;-83
2022/05/16 07:54:39;;;;;;;17.35;7.10;;;23.10;58.40;;;;;;7395074;19;20353;-83
2022/05/16 07:57:10;;;;;;;11.07;6.13;;;23.10;58.30;;;;;;7372017;19;20007;-80
2022/05/16 07:59:43;;;;;;;;;;;23.00;57.80;;;;;;7373679;19;20378;-82
2022/05/16 08:02:12;;;;;;;13.75;6.15;;;23.10;58.00;;;;;;7372227;19;20267;-82
2022/05/16 08:04:41;;;;;;;11.75;6.43;;;23.10;58.20;;;;;;7372508;19;20010;-82
2022/05/16 08:07:10;;;;;;;14.25;6.35;;;23.20;58.90;;;;;;7373038;19;20085;-82
2022/05/16 08:12:28;;;;;;;12.63;6.20;;;23.30;58.40;;;;;;7372774;19;20013;-82
2022/05/16 08:14:57;;;;;;;17.33;6.50;;;23.30;58.30;;;;;;7372764;19;20021;-81
2022/05/16 08:17:31;;;;;;;14.02;6.10;;;23.40;58.00;;;;;;7368020;19;20394;-84
2022/05/16 08:20:14;;;;;;;9.80;5.95;;;23.40;57.40;;;;;;7371275;19;20470;-84
2022/05/16 08:23:01;;;;;;;13.80;6.43;;;23.20;57.00;;;;;;7374778;19;20020;-85
2022/05/16 08:26:04;;;;;;;;;;;;;;;;;;;;;
2022/05/16 08:28:50;;;;;;;13.45;6.95;;;23.20;57.50;;;;;;7369850;19;20018;-85
2022/05/16 08:31:33;;;;;;;18.38;6.95;;;23.20;57.90;;;;;;7369220;19;20011;-89
2022/05/16 08:34:08;;;;;;;12.35;6.72;;;23.20;58.20;;;;;;7394074;19;20014;-85
2022/05/16 08:42:26;;;;;;;10.52;5.95;;;23.40;58.30;;;;;;7382272;19;20022;-89
2022/05/16 08:45:02;;;;;;;11.55;6.50;;;23.30;58.50;;;;;;7375924;19;20349;-89
2022/05/16 08:47:46;;;;;;;16.30;7.25;;;23.30;58.60;;;;;;7378624;19;20038;-90
2022/05/16 08:50:18;;;;;;;12.32;6.10;;;23.30;58.30;;;;;;7383301;19;20041;-89
2022/05/16 08:52:52;;;;;;;20.58;7.03;;;23.20;58.60;;;;;;7372515;19;20018;-85
2022/05/16 08:55:33;;;;;;;17.77;7.90;;;23.20;59.40;;;;;;7372095;19;20014;-85
2022/05/16 08:58:05;;;;;;;;;;;23.10;59.50;;;;;;7397279;19;20019;-87
2022/05/16 09:00:47;;;;;;;16.58;7.45;;;23.10;59.80;;;;;;7375984;19;20322;-87
2022/05/16 09:03:21;;;;;;;13.50;7.68;;;23.00;60.00;;;;;;7373234;19;20007;-87
2022/05/16 09:05:54;;;;;;;17.95;7.53;;;22.90;60.70;;;;;;7371721;19;20014;-86
2022/05/16 09:08:35;;;;;;;19.13;7.97;;;22.90;61.10;;;;;;7372827;19;20015;-86
2022/05/16 09:11:10;;;;;;;11.65;7.30;;;22.90;61.30;;;;;;7381509;19;20085;-84
2022/05/16 09:13:50;;;;;;;15.50;7.40;;;23.00;62.20;;;;;;7374403;19;20422;-86
2022/05/16 09:16:42;;;;;;;13.50;7.13;;;23.00;60.70;;;;;;7402839;19;20003;-83
2022/05/16 09:19:30;;;;;;;16.17;6.90;;;23.10;60.60;;;;;;7403631;19;20014;-84
2022/05/16 09:22:08;;;;;;;14.63;7.18;;;23.10;59.70;;;;;;7416668;19;20026;-85
2022/05/16 09:24:40;;;;;;;13.55;6.78;;;23.10;60.10;;;;;;7372744;19;20105;-84
2022/05/16 09:27:12;;;;;;;15.18;6.85;;;23.10;60.80;;;;;;7372290;19;20043;-87
2022/05/16 09:29:46;;;;;;;14.13;6.85;;;23.10;61.10;;;;;;7373443;19;20013;-87
2022/05/16 09:32:30;;;;;;;15.40;7.53;;;23.20;60.70;;;;;;7383064;19;20023;-88
2022/05/16 09:34:59;;;;;;;16.92;6.68;;;23.20;60.40;;;;;;7381661;19;20427;-90
2022/05/16 09:37:28;;;;;;;13.88;6.90;;;23.30;59.90;;;;;;7386374;19;20096;-89
2022/05/16 09:39:57;;;;;;;17.58;6.47;;;23.30;59.00;;;;;;7411754;19;20006;-89
2022/05/16 09:42:28;;;;;;;13.27;5.80;;;23.40;59.30;;;;;;7392768;19;20027;-88
2022/05/16 09:45:03;;;;;;;16.75;6.20;;;23.40;58.20;;;;;;7395566;19;20018;-88
2022/05/16 09:47:45;;;;;;;10.23;5.30;;;23.40;58.60;;;;;;7376731;19;20015;-86
2022/05/16 09:50:23;;;;;;;13.27;6.50;;;23.40;57.70;;;;;;7378153;19;20522;-87
2022/05/16 09:52:53;;;;;;;13.75;6.15;;;23.30;57.10;;;;;;7381044;19;20437;-87
2022/05/16 09:55:33;;;;;;;14.40;6.63;;;23.30;57.60;;;;;;7381107;19;20383;-88
2022/05/16 09:58:11;;;;;;;13.10;6.63;;;23.30;58.10;;;;;;7403079;19;20018;-88
2022/05/16 10:00:45;;;;;;;14.55;6.03;;;23.30;58.60;;;;;;7379906;19;20006;-85
2022/05/16 10:03:26;;;;;;;11.85;6.20;;;23.40;58.30;;;;;;7377967;19;20038;-86
2022/05/16 10:05:57;;;;;;;14.40;5.95;;;23.40;58.00;;;;;;7383021;19;20013;-86
2022/05/16 10:08:29;;;;;;;13.13;6.10;;;23.30;57.80;;;;;;7385038;19;20045;-86
2022/05/16 10:11:01;;;;;;;13.68;5.25;;;23.10;57.70;;;;;;7380617;19;20457;-88
2022/05/16 10:13:31;;;;;;;15.98;6.53;;;23.20;57.90;;;;;;7386496;19;20054;-88
2022/05/16 10:16:01;;;;;;;14.82;6.25;;;23.30;57.30;;;;;;7404198;19;20115;-87
2022/05/16 10:18:36;;;;;;;12.18;5.57;;;23.20;57.40;;;;;;7381411;19;20023;-85
2022/05/16 10:26:18;;;;;;;13.52;5.18;;;23.50;57.70;;;;;;7378676;19;20488;-85
2022/05/16 10:28:51;;;;;;;10.25;5.50;;;23.70;58.10;;;;;;7388842;19;20018;-87
2022/05/16 10:34:12;;;;;;;10.13;5.07;;;24.00;56.80;;;;;;7401155;19;20018;-85
2022/05/16 10:36:42;;;;;;;19.08;6.15;;;23.90;56.30;;;;;;7413981;19;20032;-88
2022/05/16 10:39:15;;;;;;;13.30;4.72;;;24.10;56.30;;;;;;7393183;19;20023;-87
2022/05/16 10:41:51;;;;;;;11.68;4.93;;;24.10;55.80;;;;;;7371024;19;20014;-82
2022/05/16 10:44:32;;;;;;;11.85;4.40;;;24.30;56.50;;;;;;7381378;19;20328;-84
2022/05/16 10:47:04;;;;;;;;;;;24.60;55.90;;;;;;7382528;19;20078;-88
2022/05/16 10:49:41;;;;;;;12.50;4.60;;;24.90;55.20;;;;;;7386933;19;20303;-88
2022/05/16 10:52:25;;;;;;;14.52;4.53;;;24.80;53.80;;;;;;7384000;19;20014;-85
2022/05/16 10:54:55;;;;;;;10.38;4.97;;;24.70;54.60;;;;;;7404083;19;20501;-81
2022/05/16 10:57:51;;;;;;;13.93;4.60;;;24.70;54.30;;;;;;7385736;19;20063;-88
2022/05/16 11:00:22;;;;;;;8.20;3.83;;;24.70;54.30;;;;;;7276382;19;21124;-86
2022/05/16 11:03:17;;;;;;;8.50;4.13;;;24.80;53.70;;;;;;7386171;19;20010;-86
2022/05/16 11:06:04;;;;;;;9.15;3.67;;;24.90;53.80;;;;;;7389152;19;20268;-86
2022/05/16 11:08:39;;;;;;;9.48;3.80;;;24.90;53.50;;;;;;7388244;19;20015;-82
2022/05/16 11:11:21;;;;;;;10.00;3.60;;;24.90;53.10;;;;;;7395356;19;20038;-84
2022/05/16 11:14:20;;;;;;;10.43;3.92;;;24.90;53.20;;;;;;7392141;19;20011;-86
2022/05/16 11:17:02;;;;;;;6.82;3.65;;;24.90;53.60;;;;;;7401189;19;20010;-86
2022/05/16 11:19:47;;;;;;;6.82;3.10;;;24.90;54.30;;;;;;7380673;19;20022;-91
2022/05/16 11:22:28;;;;;;;6.07;2.97;;;24.90;53.40;;;;;;7386683;19;20025;-87
2022/05/16 11:27:38;;;;;;;5.43;2.90;;;25.20;52.50;;;;;;7368947;19;20175;-87
2022/05/16 11:30:15;;;;;;;5.85;2.53;;;25.30;52.90;;;;;;7403795;19;20013;-88
2022/05/16 11:33:02;;;;;;;3.65;2.28;;;25.40;50.60;;;;;;7379446;19;20006;-88
2022/05/16 11:35:39;;;;;;;5.07;2.03;;;25.20;50.20;;;;;;7376366;19;20010;-89
2022/05/16 11:38:39;;;;;;;5.45;2.03;;;25.10;49.60;;;;;;7376756;19;20018;-88
2022/05/16 11:41:20;;;;;;;9.48;1.92;;;25.10;49.80;;;;;;7385227;19;20174;-88
2022/05/16 11:43:51;;;;;;;4.72;1.95;;;25.10;50.00;;;;;;7385389;19;20010;-88
2022/05/16 11:46:32;;;;;;;7.60;2.10;;;25.10;49.90;;;;;;7384942;19;20034;-89
2022/05/16 11:49:17;;;;;;;6.03;2.42;;;25.30;50.20;;;;;;7410904;19;20022;-88
2022/05/16 11:51:55;;;;;;;6.47;2.33;;;25.40;50.40;;;;;;7385729;19;20007;-87
2022/05/16 11:54:31;;;;;;;4.43;2.20;;;25.50;50.70;;;;;;7379010;19;20098;-88
2022/05/16 12:02:41;;;;;;;5.90;2.15;;;25.90;49.50;;;;;;7374977;19;20010;-88
2022/05/16 12:05:16;;;;;;;5.82;2.00;;;26.00;49.40;;;;;;7375471;19;20007;-88
2022/05/16 12:07:49;;;;;;;5.43;1.92;;;26.10;48.70;;;;;;7375421;19;20034;-88
2022/05/16 12:10:33;;;;;;;7.82;2.00;;;26.10;48.50;;;;;;7374311;19;20015;-87
2022/05/16 12:13:19;;;;;;;6.35;2.13;;;26.10;48.10;;;;;;7395441;19;20028;-88
2022/05/16 12:15:49;;;;;;;6.68;2.00;;;26.20;48.40;;;;;;7376590;19;20762;-85
2022/05/16 12:18:38;;;;;;;6.35;2.45;;;26.10;48.10;;;;;;7371044;19;20031;-84
2022/05/16 12:21:12;;;;;;;8.13;2.30;;;26.10;48.50;;;;;;7370866;19;20022;-85
2022/05/16 12:23:57;;;;;;;10.68;2.70;;;26.10;49.30;;;;;;7370533;19;20011;-85
2022/05/16 12:27:30;;;;;;;;;;;;;;;;;;;;;
2022/05/16 12:30:16;;;;;;;6.85;2.30;;;26.30;49.30;;;;;;7336032;19;20020;-87
2022/05/16 12:32:55;;;;;;;4.50;2.10;;;26.50;48.70;;;;;;7370796;19;20034;-85
2022/05/16 12:39:06;;;;;;;6.25;2.38;;;26.60;48.10;;;;;;7376547;19;20695;-85
2022/05/16 12:41:54;;;;;;;4.18;2.00;;;26.70;47.20;;;;;;7375004;19;20023;-84
2022/05/16 12:55:36;;;;;;;6.82;1.70;;;26.80;47.50;;;;;;7368016;19;20024;-86
2022/05/16 12:58:27;;;;;;;4.75;1.50;;;26.80;46.50;;;;;;7389681;19;20090;-87
2022/05/16 13:01:12;;;;;;;3.08;1.30;;;26.80;46.20;;;;;;7366028;19;20011;-84
2022/05/16 13:03:54;;;;;;;3.97;1.60;;;26.80;45.60;;;;;;7369051;19;20040;-84
2022/05/16 13:43:57;;;;;;;;;;;;;;;;;;;;;
2022/05/16 13:49:58;;;;;;;3.05;1.10;;;27.20;43.20;;;;;;7374808;19;20021;-86
2022/05/16 13:52:30;;;;;;;7.57;1.10;;;27.30;42.50;;;;;;7373409;19;20032;-87
2022/05/16 13:55:15;;;;;;;3.92;1.30;;;27.40;43.40;;;;;;7398096;19;20107;-89
2022/05/16 13:57:44;;;;;;;5.25;1.20;;;27.40;42.00;;;;;;7374644;19;20074;-86
2022/05/16 14:00:40;;;;;;;4.03;1.20;;;27.30;41.80;;;;;;7380228;19;20017;-90
2022/05/16 14:03:30;;;;;;;3.55;1.33;;;27.40;41.90;;;;;;7376819;19;20106;-86
2022/05/16 14:06:53;;;;;;;4.13;1.20;;;27.50;41.70;;;;;;7336655;19;20007;-88
2022/05/16 14:09:48;;;;;;;6.60;3.55;;;27.60;42.40;;;;;;7378545;19;20056;-88
2022/05/16 14:15:34;;;;;;;5.07;1.17;;;28.10;41.40;;;;;;7384266;19;20006;-88
2022/05/16 14:36:12;;;;;;;4.07;1.00;;;28.30;40.30;;;;;;7326402;19;20014;-86
2022/05/16 14:42:18;;;;;;;4.80;1.10;;;28.30;39.20;;;;;;7379743;19;20059;-88
2022/05/16 14:45:18;;;;;;;;;;;;;;;;;;;;;
2022/05/16 14:52:26;;;;;;;;;;;;;;;;;;;;;
2022/05/16 14:57:47;;;;;;;3.38;1.15;;;28.00;40.50;;;;;;7312628;19;20080;-88
2022/05/16 15:05:45;;;;;;;2.97;1.20;;;28.00;40.40;;;;;;7377809;19;20037;-87
2022/05/16 15:08:28;;;;;;;3.60;0.90;;;28.10;40.30;;;;;;7377840;19;20459;-85
2022/05/16 15:10:57;;;;;;;4.90;1.25;;;28.20;40.90;;;;;;7375912;19;20092;-85
2022/05/16 15:13:29;;;;;;;7.70;1.20;;;28.40;40.90;;;;;;7373744;19;20130;-85
2022/05/16 15:15:59;;;;;;;11.18;1.30;;;28.40;38.80;;;;;;7396517;19;20092;-83
2022/05/16 15:18:30;;;;;;;3.33;1.27;;;28.30;39.50;;;;;;7375688;19;20434;-85
2022/05/16 15:21:00;;;;;;;;;;;28.30;39.00;;;;;;7377747;19;20450;-85
2022/05/16 15:23:30;;;;;;;3.05;1.20;;;28.30;39.20;;;;;;7395226;19;19922;-84
2022/05/16 15:26:00;;;;;;;2.70;1.00;;;28.30;39.40;;;;;;7403541;19;20047;-87
2022/05/16 15:28:31;;;;;;;4.50;0.90;;;28.30;39.60;;;;;;7400748;19;20017;-84
2022/05/16 15:31:02;;;;;;;6.00;1.00;;;28.50;38.90;;;;;;7405539;19;20010;-86
2022/05/16 15:33:31;;;;;;;1.73;1.00;;;28.70;39.30;;;;;;7378560;19;20464;-87
2022/05/16 15:36:00;;;;;;;3.15;0.80;;;28.90;38.40;;;;;;7382262;19;20400;-86
2022/05/16 15:38:29;;;;;;;3.42;0.57;;;29.10;38.10;;;;;;7384596;19;20014;-83
2022/05/16 15:40:58;;;;;;;2.53;0.90;;;29.50;37.40;;;;;;7378424;19;20429;-85
2022/05/16 15:43:28;;;;;;;2.30;1.08;;;30.00;36.70;;;;;;7375415;19;20025;-83
2022/05/16 15:46:02;;;;;;;4.57;0.80;;;30.40;36.00;;;;;;7400448;19;20349;-87
2022/05/16 15:48:33;;;;;;;3.38;0.90;;;30.80;35.10;;;;;;7379187;19;20007;-91
2022/05/16 15:51:02;;;;;;;2.30;0.90;;;31.60;34.70;;;;;;7380424;19;20007;-89
2022/05/16 15:53:31;;;;;;;1.85;0.80;;;32.30;33.20;;;;;;7379102;19;20018;-86
2022/05/16 15:56:00;;;;;;;2.60;0.60;;;32.70;32.00;;;;;;7373231;19;20358;-84
2022/05/16 15:58:29;;;;;;;2.38;0.95;;;32.20;32.40;;;;;;7372941;19;20058;-87
2022/05/16 16:01:00;;;;;;;2.30;0.90;;;31.60;33.40;;;;;;7395444;19;20131;-84
2022/05/16 16:09:04;;;;;;;5.03;1.13;;;33.30;32.00;;;;;;7370585;19;20338;-81
2022/05/16 16:11:33;;;;;;;2.28;0.93;;;34.20;30.90;;;;;;7369798;19;20034;-82
2022/05/16 16:14:02;;;;;;;2.20;0.90;;;34.70;30.80;;;;;;7371845;19;20027;-82
2022/05/16 16:16:34;;;;;;;2.83;1.02;;;35.40;30.00;;;;;;7372599;19;20058;-83
2022/05/16 16:22:06;;;;;;;2.05;0.80;;;36.10;29.20;;;;;;7361768;19;20014;-83
2022/05/16 16:24:38;;;;;;;1.83;0.80;;;36.60;29.20;;;;;;7390197;19;20419;-83
2022/05/16 16:27:10;;;;;;;1.55;0.95;;;36.60;28.20;;;;;;7367126;19;20014;-83
2022/05/16 16:29:39;;;;;;;2.50;0.60;;;36.60;28.40;;;;;;7367732;19;20458;-83
2022/05/16 16:32:11;;;;;;;1.65;0.80;;;36.90;28.20;;;;;;7368628;19;20034;-82
2022/05/16 16:34:41;;;;;;;4.53;0.77;;;36.90;27.50;;;;;;7367054;19;20019;-83
2022/05/16 16:37:09;;;;;;;2.13;0.82;;;36.80;27.70;;;;;;7366073;19;20355;-83
2022/05/16 16:39:38;;;;;;;2.47;0.73;;;36.80;27.60;;;;;;7382999;19;20014;-85
2022/05/16 16:42:08;;;;;;;4.28;0.73;;;36.70;27.20;;;;;;7365280;19;20027;-86
2022/05/16 16:44:37;;;;;;;2.10;1.25;;;36.60;27.80;;;;;;7367305;19;20029;-85
2022/05/16 16:47:07;;;;;;;1.73;0.85;;;36.40;28.30;;;;;;7366168;19;20123;-85
2022/05/16 16:49:44;;;;;;;2.22;0.88;;;36.30;27.80;;;;;;7368684;19;20019;-81
2022/05/16 16:57:39;;;;;;;2.28;0.80;;;36.60;28.10;;;;;;7368684;19;20018;-85
2022/05/16 17:00:13;;;;;;;2.58;0.90;;;36.80;27.90;;;;;;7367398;19;20010;-84
2022/05/16 17:02:44;;;;;;;2.65;0.90;;;37.10;28.10;;;;;;7367765;19;20529;-83
2022/05/16 17:05:18;;;;;;;1.95;0.88;;;37.30;27.90;;;;;;7366422;19;20017;-83
2022/05/16 17:07:50;;;;;;;2.00;0.77;;;37.60;27.60;;;;;;7366219;19;20018;-84
2022/05/16 17:10:23;;;;;;;3.85;2.30;;;37.40;26.70;;;;;;7364517;19;20314;-83
2022/05/16 17:12:52;;;;;;;4.25;1.17;;;36.60;27.40;;;;;;7386272;19;20026;-84
2022/05/16 17:15:22;;;;;;;2.30;0.80;;;35.50;28.00;;;;;;7365929;19;20021;-84
2022/05/16 17:17:52;;;;;;;2.08;0.60;;;34.60;29.00;;;;;;7368959;19;20316;-83
2022/05/16 17:20:24;;;;;;;3.45;0.90;;;33.70;30.00;;;;;;7369509;19;20006;-83
2022/05/16 17:22:53;;;;;;;1.63;0.90;;;32.90;31.10;;;;;;7367900;19;20583;-83